עמוד ראשי
METAR-TAF:

METAR-TAF

שדות תעופה :

Bocas Town, פנמה

קו רוחב: 09-21N, קו אורך: 082-15W, גובה: 3מטר

תצפית מזג אוויר נוכחית

הדו"ח נערך לפני 1 שעות ו 3דקות, בשעה 16:00 UTC
רוח 8קשר מכיוון מערב
טמפרטורת 26 צלסיוס
לחות 100%
לחץ 1014 hPa
ראות 10 קילומטר או יותר
עננים פזורים בגובה 2000רגל
עננים פזורים בגובה 8000רגל

METAR: MPBO 241600Z 26008KT 9999 SCT020 SCT080 26/26 Q1014

זמן: 12:03 (17:03 UTC)


TAF: חסר

תצפיות ותחזיות מזג אוויר לגבי יותר מ- 4,000 שדות תעופה ברחבי העולם. דוחות METAR ו- TAF.

התחנות הזמינות מסומנות בנקודות צהובות ואדומות על גבי המפה.

העבר את העכבר לנקודה הצבעונית על מנת לראות את שם התחנה.

לאחר מכן, לחץ כדי לראות את תוכן ואת תחזיות מזג האוויר.

כדי לשנות את המפה: לחץ על הכפתורים הירוקים עם הפלוס השחור כדי להתקרב; על הכפתור הירוק עם המקף כדי להתרחק; או בחיצים הירוקים למפות סמוכות.


METAR-TAF: